Time;durP1;ratioP1;P1;durP2;ratioP2;P2;SDS_P1;SDS_P2;PMS_P1;PMS_P2;Temp;Humidity;BMP_temperature;BMP_pressure;BME280_temperature;BME280_humidity;BME280_pressure;Samples;Min_cycle;Max_cycle;Signal;HPM_P1;HPM_P2
2021/08/24 00:01:30;;;;;;;;;;;;;;;23.54;49.86;100809.03;5096659;28;819;-37
2021/08/24 00:03:55;;;;;;;;;;;;;;;22.48;52.57;100806.88;5099220;28;502;-39
2021/08/24 00:06:20;;;;;;;;;;;;;;;22.05;53.71;100808.34;5102761;28;752;-39
2021/08/24 00:08:46;;;;;;;;;;;;;;;21.88;53.58;100805.47;5102736;28;827;-38
2021/08/24 00:11:11;;;;;;;;;;;;;;;21.74;53.54;100806.72;5102659;28;1092;-40
2021/08/24 00:13:36;;;;;;;;;;;;;;;23.21;53.31;100811.44;5102976;28;815;-45
2021/08/24 00:16:02;;;;;;;;;;;;;;;25.51;45.78;100815.34;5102985;28;866;-40
2021/08/24 00:18:27;;;;;;;;;;;;;;;26.17;44.54;100808.13;5103087;28;831;-31
2021/08/24 00:20:53;;;;;;;;;;;;;;;26.55;44.13;100810.16;5087496;28;2024;-37
2021/08/24 00:23:19;;;;;;;;;;;;;;;26.84;42.81;100813.19;5082816;28;822;-40
2021/08/24 00:25:46;;;;;;;;;;;;;;;26.75;43.09;100815.09;5082701;28;1014;-45
2021/08/24 00:28:11;;;;;;;;;;;;;;;22.92;51.08;100801.81;5082174;28;780;-37
2021/08/24 00:30:39;;;;;;;;;;;;;;;22.30;52.82;100803.31;5082554;28;835;-46
2021/08/24 00:33:05;;;;;;;;;;;;;;;21.94;53.54;100802.19;5082618;28;832;-39
2021/08/24 00:35:30;;;;;;;;;;;;;;;21.56;54.17;100794.09;5081776;28;890;-37
2021/08/24 00:37:56;;;;;;;;;;;;;;;21.80;56.41;100787.44;5082628;28;863;-47
2021/08/24 00:40:21;;;;;;;;;;;;;;;24.74;48.07;100797.66;5082321;28;1902;-37
2021/08/24 00:42:46;;;;;;;;;;;;;;;25.92;45.84;100792.88;5082679;28;719;-35
2021/08/24 00:45:12;;;;;;;;;;;;;;;26.41;43.86;100787.47;5082329;28;867;-36
2021/08/24 00:47:39;;;;;;;;;;;;;;;26.75;43.36;100791.66;5082096;28;878;-38
2021/08/24 00:50:15;;;;;;;;;;;;;;;26.98;42.79;100780.00;5094672;28;1741;-39
2021/08/24 00:52:40;;;;;;;;;;;;;;;23.76;48.79;100779.97;5101492;28;784;-38
2021/08/24 00:55:06;;;;;;;;;;;;;;;22.42;52.10;100777.97;5102083;28;957;-46
2021/08/24 00:57:31;;;;;;;;;;;;;;;22.01;53.17;100773.84;5102959;28;767;-39
2021/08/24 00:59:56;;;;;;;;;;;;;;;21.75;53.36;100773.63;5101925;28;1922;-39
2021/08/24 01:02:22;;;;;;;;;;;;;;;23.22;53.28;100772.91;5102701;28;759;-38
2021/08/24 01:04:48;;;;;;;;;;;;;;;25.50;45.74;100762.50;5102651;28;854;-45
2021/08/24 01:07:19;;;;;;;;;;;;;;;26.25;44.54;100778.44;5102022;28;732;-39
2021/08/24 01:09:56;;;;;;;;;;;;;;;26.74;42.90;100776.47;5101565;28;1037;-41
2021/08/24 01:12:31;;;;;;;;;;;;;;;26.93;42.91;100774.31;5102587;28;756;-41
2021/08/24 01:15:11;;;;;;;;;;;;;;;25.96;42.33;100782.59;5082087;28;776;-38
2021/08/24 01:17:39;;;;;;;;;;;;;;;22.79;51.27;100778.88;5079084;28;738;-39
2021/08/24 01:20:10;;;;;;;;;;;;;;;22.07;53.03;100779.59;5085162;28;1909;-39
2021/08/24 01:22:58;;;;;;;;;;;;;;;21.73;53.63;100771.09;5099345;28;775;-37
2021/08/24 01:25:42;;;;;;;;;;;;;;;23.89;51.09;100776.03;5087567;28;1989;-38
2021/08/24 01:28:08;;;;;;;;;;;;;;;25.91;44.87;100771.50;5078813;28;776;-41
2021/08/24 01:30:36;;;;;;;;;;;;;;;26.47;43.98;100783.22;5078499;28;862;-36
2021/08/24 01:33:09;;;;;;;;;;;;;;;26.78;43.85;100777.78;5078956;28;772;-38
2021/08/24 01:35:44;;;;;;;;;;;;;;;27.08;42.62;100771.69;5078090;28;816;-39
2021/08/24 01:38:21;;;;;;;;;;;;;;;27.30;42.77;100777.22;5078281;28;818;-44
2021/08/24 01:40:48;;;;;;;;;;;;;;;27.31;43.25;100772.66;5078465;28;1980;-47
2021/08/24 01:43:14;;;;;;;;;;;;;;;23.31;50.68;100766.59;5078713;28;768;-37
2021/08/24 01:45:44;;;;;;;;;;;;;;;22.42;53.07;100758.38;5078203;28;851;-32
2021/08/24 01:48:13;;;;;;;;;;;;;;;21.99;53.65;100756.19;5076978;28;1044;-32
2021/08/24 01:50:39;;;;;;;;;;;;;;;21.88;53.59;100750.06;5095005;28;1609;-31
2021/08/24 01:53:15;;;;;;;;;;;;;;;22.43;56.64;100754.69;5097440;28;755;-43
2021/08/24 01:55:45;;;;;;;;;;;;;;;25.41;46.42;100760.81;5096337;28;958;-39
2021/08/24 01:58:10;;;;;;;;;;;;;;;26.27;44.49;100759.38;5098173;28;786;-38
2021/08/24 02:00:36;;;;;;;;;;;;;;;26.74;43.82;100765.66;5098304;28;1914;-45
2021/08/24 02:03:02;;;;;;;;;;;;;;;27.04;42.53;100764.13;5097381;28;812;-39
2021/08/24 02:05:47;;;;;;;;;;;;;;;27.08;43.44;100757.34;5096060;28;1192;-42
2021/08/24 02:08:16;;;;;;;;;;;;;;;22.97;50.78;100752.06;5097624;28;778;-38
2021/08/24 02:10:42;;;;;;;;;;;;;;;22.21;52.84;100754.13;5095524;28;1013;-39
2021/08/24 02:13:07;;;;;;;;;;;;;;;21.92;53.31;100753.28;5096282;28;862;-48
2021/08/24 02:15:34;;;;;;;;;;;;;;;21.71;53.52;100754.31;5080095;28;1305;-36
2021/08/24 02:17:59;;;;;;;;;;;;;;;23.28;52.60;100753.47;5096923;28;834;-37
2021/08/24 02:20:25;;;;;;;;;;;;;;;25.55;45.52;100756.59;5085607;28;1897;-37
2021/08/24 02:22:53;;;;;;;;;;;;;;;26.29;44.18;100755.47;5076634;28;715;-47
2021/08/24 02:25:20;;;;;;;;;;;;;;;26.72;43.25;100751.53;5078200;28;955;-37
2021/08/24 02:27:48;;;;;;;;;;;;;;;27.02;42.98;100746.28;5077006;28;772;-41
2021/08/24 02:30:13;;;;;;;;;;;;;;;27.16;43.25;100751.03;5077584;28;791;-32
2021/08/24 02:32:41;;;;;;;;;;;;;;;27.36;43.36;100746.78;5076095;28;847;-36
2021/08/24 02:35:12;;;;;;;;;;;;;;;24.39;47.36;100743.97;5075966;28;827;-45
2021/08/24 02:37:39;;;;;;;;;;;;;;;22.66;52.25;100732.84;5077897;28;820;-44
2021/08/24 02:40:08;;;;;;;;;;;;;;;22.05;53.77;100733.34;5075966;28;1901;-44
2021/08/24 02:42:40;;;;;;;;;;;;;;;21.82;54.77;100734.56;5076479;28;1174;-41
2021/08/24 02:45:09;;;;;;;;;;;;;;;24.67;49.12;100735.63;5076361;28;783;-32
2021/08/24 02:47:35;;;;;;;;;;;;;;;26.05;45.30;100732.19;5077301;28;815;-33
2021/08/24 02:50:01;;;;;;;;;;;;;;;26.77;43.59;100732.09;5087742;28;1559;-32
2021/08/24 02:52:26;;;;;;;;;;;;;;;26.97;43.72;100728.91;5097380;28;986;-32
2021/08/24 02:54:51;;;;;;;;;;;;;;;27.30;43.55;100730.47;5094718;28;973;-32
2021/08/24 02:57:17;;;;;;;;;;;;;;;27.41;42.74;100734.59;5097014;28;760;-41
2021/08/24 02:59:42;;;;;;;;;;;;;;;27.35;43.94;100730.75;5097430;28;1973;-33
2021/08/24 03:02:08;;;;;;;;;;;;;;;23.43;50.28;100718.88;5097457;28;784;-36
2021/08/24 03:04:33;;;;;;;;;;;;;;;22.37;53.05;100724.81;5097230;28;781;-43
2021/08/24 03:07:03;;;;;;;;;;;;;;;22.03;53.21;100720.09;5097342;28;732;-39
2021/08/24 03:09:29;;;;;;;;;;;;;;;21.78;53.86;100722.47;5095983;28;930;-42
2021/08/24 03:11:56;;;;;;;;;;;;;;;21.83;55.35;100727.38;5095292;28;887;-47
2021/08/24 03:14:25;;;;;;;;;;;;;;;24.75;48.34;100734.78;5095668;28;890;-37
2021/08/24 03:17:10;;;;;;;;;;;;;;;26.05;45.63;100729.50;5095446;28;758;-36
2021/08/24 03:19:35;;;;;;;;;;;;;;;26.71;43.08;100738.22;5091645;28;1966;-41
2021/08/24 03:22:01;;;;;;;;;;;;;;;26.96;43.21;100738.03;5076106;28;835;-38
2021/08/24 03:24:26;;;;;;;;;;;;;;;27.18;42.90;100732.78;5076660;28;951;-36
2021/08/24 03:26:52;;;;;;;;;;;;;;;27.32;42.66;100736.53;5074789;28;1301;-38
2021/08/24 03:29:18;;;;;;;;;;;;;;;27.37;43.09;100740.38;5075244;28;920;-38
2021/08/24 03:31:43;;;;;;;;;;;;;;;27.61;42.44;100730.28;5076392;28;837;-32
2021/08/24 03:34:09;;;;;;;;;;;;;;;24.40;47.54;100732.22;5074892;28;882;-32
2021/08/24 03:36:34;;;;;;;;;;;;;;;22.73;52.75;100726.72;5076551;28;774;-35
2021/08/24 03:38:59;;;;;;;;;;;;;;;22.37;52.99;100730.19;5076018;28;1905;-35
2021/08/24 03:41:24;;;;;;;;;;;;;;;22.02;53.57;100721.13;5094936;28;907;-34
2021/08/24 03:43:50;;;;;;;;;;;;;;;21.88;53.68;100723.28;5096538;28;834;-38
2021/08/24 03:46:15;;;;;;;;;;;;;;;21.48;52.93;100722.56;5077857;28;819;-47
2021/08/24 03:48:40;;;;;;;;;;;;;;;21.22;52.28;100725.03;5075965;28;1589;-41
2021/08/24 03:51:06;;;;;;;;;;;;;;;21.19;51.39;100728.81;5076426;28;811;-38
2021/08/24 03:53:32;;;;;;;;;;;;;;;20.57;52.76;100732.59;5076321;28;962;-37
2021/08/24 03:55:57;;;;;;;;;;;;;;;20.39;53.65;100735.97;5090937;28;947;-38
2021/08/24 03:58:22;;;;;;;;;;;;;;;20.62;52.27;100732.22;5090050;28;1329;-39
2021/08/24 04:00:47;;;;;;;;;;;;;;;20.12;51.51;100728.59;5080288;28;1906;-37
2021/08/24 04:03:13;;;;;;;;;;;;;;;19.89;53.70;100732.28;5091621;28;804;-38
2021/08/24 04:05:38;;;;;;;;;;;;;;;19.51;55.46;100728.44;5076324;28;881;-37
2021/08/24 04:08:03;;;;;;;;;;;;;;;19.44;56.33;100739.66;5090093;28;811;-36
2021/08/24 04:10:29;;;;;;;;;;;;;;;19.41;56.41;100739.06;5095363;28;942;-37
2021/08/24 04:12:54;;;;;;;;;;;;;;;19.21;56.64;100736.28;5078178;28;764;-36
2021/08/24 04:15:19;;;;;;;;;;;;;;;19.10;56.99;100737.19;5076260;28;878;-33
2021/08/24 04:17:45;;;;;;;;;;;;;;;19.07;57.32;100734.72;5075804;28;818;-37
2021/08/24 04:20:11;;;;;;;;;;;;;;;19.95;54.81;100734.41;5079511;28;1901;-37
2021/08/24 04:22:38;;;;;;;;;;;;;;;21.11;50.84;100729.53;5076610;28;802;-37
2021/08/24 04:25:03;;;;;;;;;;;;;;;21.36;50.12;100726.38;5076601;28;889;-37
2021/08/24 04:27:29;;;;;;;;;;;;;;;21.47;49.81;100728.06;5075670;28;1080;-35
2021/08/24 04:29:54;;;;;;;;;;;;;;;21.43;49.90;100723.97;5089557;28;1107;-32
2021/08/24 04:32:22;;;;;;;;;;;;;;;21.55;49.51;100724.66;5095957;28;1170;-40
2021/08/24 04:34:47;;;;;;;;;;;;;;;21.67;48.86;100736.84;5073927;28;934;-37
2021/08/24 04:37:12;;;;;;;;;;;;;;;21.60;48.88;100731.28;5075976;28;748;-32
2021/08/24 04:39:38;;;;;;;;;;;;;;;21.65;48.29;100723.63;5076156;28;1914;-43
2021/08/24 04:42:03;;;;;;;;;;;;;;;21.61;48.37;100732.94;5081957;28;1174;-37
2021/08/24 04:44:28;;;;;;;;;;;;;;;21.58;48.43;100733.25;5095937;28;1138;-36
2021/08/24 04:46:53;;;;;;;;;;;;;;;21.48;48.40;100735.09;5076104;28;791;-39
2021/08/24 04:49:20;;;;;;;;;;;;;;;21.24;49.25;100741.75;5074822;28;1625;-37
2021/08/24 04:51:46;;;;;;;;;;;;;;;21.47;48.71;100742.28;5078339;28;858;-40
2021/08/24 04:54:11;;;;;;;;;;;;;;;21.36;48.58;100737.94;5079130;28;831;-38
2021/08/24 04:56:36;;;;;;;;;;;;;;;21.29;48.94;100734.16;5080977;28;942;-33
2021/08/24 04:59:02;;;;;;;;;;;;;;;21.20;48.90;100735.03;5099590;28;1969;-34
2021/08/24 05:01:27;;;;;;;;;;;;;;;21.11;49.13;100740.25;5099689;28;859;-34
2021/08/24 05:03:52;;;;;;;;;;;;;;;21.03;49.17;100737.44;5099156;28;811;-39
2021/08/24 05:06:18;;;;;;;;;;;;;;;20.87;49.84;100738.81;5099850;28;756;-34
2021/08/24 05:08:43;;;;;;;;;;;;;;;21.09;49.11;100731.50;5099301;28;847;-39
2021/08/24 05:11:08;;;;;;;;;;;;;;;21.00;49.26;100735.88;5099149;28;1013;-35
2021/08/24 05:13:34;;;;;;;;;;;;;;;20.97;49.52;100735.34;5079570;28;894;-37
2021/08/24 05:15:59;;;;;;;;;;;;;;;20.84;49.72;100728.41;5079050;28;804;-37
2021/08/24 05:18:24;;;;;;;;;;;;;;;21.13;50.29;100738.28;5078841;28;746;-37
2021/08/24 05:20:49;;;;;;;;;;;;;;;23.26;45.49;100744.72;5078994;28;1961;-40
2021/08/24 05:23:15;;;;;;;;;;;;;;;23.97;45.12;100741.13;5098097;28;1112;-39
2021/08/24 05:25:40;;;;;;;;;;;;;;;24.30;42.20;100741.28;5099341;28;793;-41
2021/08/24 05:28:05;;;;;;;;;;;;;;;22.92;45.46;100743.63;5082355;28;957;-38
2021/08/24 05:30:30;;;;;;;;;;;;;;;21.96;48.42;100751.16;5078616;28;803;-42
2021/08/24 05:32:56;;;;;;;;;;;;;;;21.49;49.26;100751.00;5078533;28;772;-40
2021/08/24 05:35:21;;;;;;;;;;;;;;;21.31;49.13;100750.06;5079128;28;763;-39
2021/08/24 05:37:47;;;;;;;;;;;;;;;21.34;49.57;100750.63;5078563;28;932;-38
2021/08/24 05:40:12;;;;;;;;;;;;;;;21.29;49.67;100759.06;5077899;28;1910;-37
2021/08/24 05:42:38;;;;;;;;;;;;;;;22.26;49.93;100755.38;5091110;28;950;-41
2021/08/24 05:45:03;;;;;;;;;;;;;;;23.89;44.54;100762.59;5098675;28;832;-40
2021/08/24 05:47:29;;;;;;;;;;;;;;;24.28;42.74;100763.94;5098743;28;739;-40
2021/08/24 05:49:54;;;;;;;;;;;;;;;24.60;42.97;100765.03;5087033;28;1573;-39
2021/08/24 05:52:20;;;;;;;;;;;;;;;24.84;41.42;100771.41;5079121;28;953;-41
2021/08/24 05:54:47;;;;;;;;;;;;;;;24.98;42.30;100777.19;5078955;28;747;-39
2021/08/24 05:57:14;;;;;;;;;;;;;;;25.06;41.27;100772.66;5086935;28;1065;-38
2021/08/24 05:59:40;;;;;;;;;;;;;;;23.81;45.52;100772.28;5098801;28;1914;-40
2021/08/24 06:02:05;;;;;;;;;;;;;;;22.63;48.58;100771.53;5098463;28;730;-39
2021/08/24 06:04:30;;;;;;;;;;;;;;;22.12;49.20;100771.97;5097321;28;791;-38
2021/08/24 06:06:56;;;;;;;;;;;;;;;21.99;49.51;100769.59;5098507;28;843;-38
2021/08/24 06:09:21;;;;;;;;;;;;;;;21.83;49.59;100771.09;5098694;28;740;-41
2021/08/24 06:11:50;;;;;;;;;;;;;;;21.81;49.09;100769.53;5092554;28;1017;-41
2021/08/24 06:14:16;;;;;;;;;;;;;;;21.72;48.71;100771.25;5078871;28;756;-41
2021/08/24 06:16:41;;;;;;;;;;;;;;;21.59;48.77;100772.38;5078416;28;740;-41
2021/08/24 06:19:07;;;;;;;;;;;;;;;23.39;45.89;100767.66;5077670;28;1890;-43
2021/08/24 06:21:32;;;;;;;;;;;;;;;24.49;42.53;100776.09;5083105;28;1187;-40
2021/08/24 06:23:57;;;;;;;;;;;;;;;24.94;41.38;100766.75;5098460;28;835;-41
2021/08/24 06:26:23;;;;;;;;;;;;;;;25.14;41.27;100776.34;5095294;28;922;-38
2021/08/24 06:28:48;;;;;;;;;;;;;;;22.85;46.38;100766.72;5078313;28;829;-39
2021/08/24 06:31:14;;;;;;;;;;;;;;;21.95;46.59;100762.88;5077916;28;731;-39
2021/08/24 06:33:39;;;;;;;;;;;;;;;21.93;46.46;100767.50;5077743;28;1403;-36
2021/08/24 06:36:04;;;;;;;;;;;;;;;22.67;46.91;100764.03;5077972;28;732;-38
2021/08/24 06:38:31;;;;;;;;;;;;;;;22.51;46.88;100771.72;5077842;28;724;-37
2021/08/24 06:40:56;;;;;;;;;;;;;;;22.23;47.73;100763.72;5077447;28;1901;-36
2021/08/24 06:43:22;;;;;;;;;;;;;;;23.07;48.03;100762.69;5096490;28;993;-37
2021/08/24 06:45:47;;;;;;;;;;;;;;;24.51;42.80;100774.91;5097910;28;839;-45
2021/08/24 06:48:12;;;;;;;;;;;;;;;24.80;43.63;100773.63;5097929;28;1235;-46
2021/08/24 06:50:38;;;;;;;;;;;;;;;23.22;47.30;100775.59;5079776;28;1459;-40
2021/08/24 06:53:03;;;;;;;;;;;;;;;23.99;45.86;100768.66;5077992;28;847;-42
2021/08/24 06:55:31;;;;;;;;;;;;;;;24.83;41.56;100775.97;5077283;28;833;-44
2021/08/24 06:57:57;;;;;;;;;;;;;;;23.24;47.00;100776.25;5092381;28;1022;-38
2021/08/24 07:00:22;;;;;;;;;;;;;;;22.84;47.77;100773.06;5097665;28;1909;-38
2021/08/24 07:02:48;;;;;;;;;;;;;;;23.68;45.46;100770.03;5090881;28;1691;-37
2021/08/24 07:05:13;;;;;;;;;;;;;;;24.85;41.86;100769.59;5079668;28;839;-38
2021/08/24 07:07:39;;;;;;;;;;;;;;;23.43;46.26;100771.72;5077571;28;787;-36
2021/08/24 07:10:04;;;;;;;;;;;;;;;24.09;45.04;100771.22;5077283;28;756;-39
2021/08/24 07:12:30;;;;;;;;;;;;;;;24.58;43.31;100780.47;5088043;28;950;-36
2021/08/24 07:14:55;;;;;;;;;;;;;;;24.98;41.95;100779.88;5097121;28;873;-38
2021/08/24 07:17:23;;;;;;;;;;;;;;;25.16;42.00;100783.25;5096923;28;804;-39
2021/08/24 07:19:48;;;;;;;;;;;;;;;24.39;44.68;100778.94;5097539;28;1961;-46
2021/08/24 07:22:14;;;;;;;;;;;;;;;24.73;44.37;100780.66;5086639;28;1122;-48
2021/08/24 07:24:39;;;;;;;;;;;;;;;24.41;45.26;100780.44;5076815;28;791;-39
2021/08/24 07:27:04;;;;;;;;;;;;;;;24.49;45.04;100770.72;5084647;28;975;-48
2021/08/24 07:29:29;;;;;;;;;;;;;;;24.96;42.09;100771.16;5097182;28;743;-45
2021/08/24 07:31:55;;;;;;;;;;;;;;;25.61;40.28;100763.16;5096827;28;825;-42
2021/08/24 07:34:20;;;;;;;;;;;;;;;25.89;39.19;100778.94;5097233;28;899;-38
2021/08/24 07:36:45;;;;;;;;;;;;;;;25.10;42.75;100772.31;5097224;28;760;-39
2021/08/24 07:39:11;;;;;;;;;;;;;;;24.96;41.96;100774.66;5096575;28;1901;-40
2021/08/24 07:41:36;;;;;;;;;;;;;;;25.10;42.66;100773.16;5092484;28;930;-39
2021/08/24 07:44:02;;;;;;;;;;;;;;;25.05;45.17;100776.34;5076714;28;803;-39
2021/08/24 07:46:27;;;;;;;;;;;;;;;25.24;43.21;100765.41;5076531;28;756;-36
2021/08/24 07:48:52;;;;;;;;;;;;;;;25.54;42.00;100780.00;5079227;28;1661;-37
2021/08/24 07:51:20;;;;;;;;;;;;;;;24.99;44.00;100778.88;5096918;28;820;-36
2021/08/24 07:53:46;;;;;;;;;;;;;;;25.44;42.59;100779.34;5096308;28;954;-37
2021/08/24 07:56:11;;;;;;;;;;;;;;;24.93;44.70;100778.53;5095986;28;941;-36
2021/08/24 07:58:36;;;;;;;;;;;;;;;25.00;44.01;100778.72;5076758;28;756;-37
2021/08/24 08:01:02;;;;;;;;;;;;;;;25.35;43.05;100778.53;5075792;28;1914;-36
2021/08/24 08:03:30;;;;;;;;;;;;;;;25.68;41.17;100775.78;5076721;28;811;-37
2021/08/24 08:05:55;;;;;;;;;;;;;;;25.69;41.60;100776.66;5076305;28;807;-39
2021/08/24 08:08:20;;;;;;;;;;;;;;;24.62;44.86;100787.22;5075645;28;812;-36
2021/08/24 08:10:46;;;;;;;;;;;;;;;24.17;46.29;100776.66;5076253;28;811;-36
2021/08/24 08:13:11;;;;;;;;;;;;;;;24.92;44.13;100778.72;5093797;28;942;-35
2021/08/24 08:15:36;;;;;;;;;;;;;;;24.65;44.68;100794.09;5096426;28;807;-38
2021/08/24 08:18:02;;;;;;;;;;;;;;;25.10;42.88;100775.84;5096604;28;744;-39
2021/08/24 08:20:31;;;;;;;;;;;;;;;25.31;43.13;100779.84;5089985;28;1909;-38
2021/08/24 08:22:56;;;;;;;;;;;;;;;24.57;44.54;100781.50;5078740;28;1231;-37
2021/08/24 08:25:22;;;;;;;;;;;;;;;25.39;42.70;100771.78;5078698;28;736;-35
2021/08/24 08:27:47;;;;;;;;;;;;;;;25.86;41.48;100768.50;5094231;28;1006;-39
2021/08/24 08:30:12;;;;;;;;;;;;;;;26.09;40.74;100768.56;5100627;28;779;-38
2021/08/24 08:32:38;;;;;;;;;;;;;;;25.84;41.33;100775.91;5100164;28;787;-39
2021/08/24 08:35:04;;;;;;;;;;;;;;;25.84;42.04;100771.34;5098232;28;1120;-40
2021/08/24 08:37:29;;;;;;;;;;;;;;;25.41;43.13;100772.44;5100768;28;807;-37
2021/08/24 08:39:54;;;;;;;;;;;;;;;24.90;45.37;100776.19;5100342;28;1905;-35
2021/08/24 08:42:26;;;;;;;;;;;;;;;24.83;45.84;100770.59;5089669;28;986;-38
2021/08/24 08:45:02;;;;;;;;;;;;;;;24.99;45.30;100771.63;5080173;28;859;-37
2021/08/24 08:47:31;;;;;;;;;;;;;;;25.72;43.53;100760.13;5079628;28;729;-37
2021/08/24 08:49:56;;;;;;;;;;;;;;;24.87;44.76;100768.41;5089875;28;1516;-38
2021/08/24 08:52:28;;;;;;;;;;;;;;;24.45;45.51;100767.50;5100162;28;864;-36
2021/08/24 08:54:58;;;;;;;;;;;;;;;24.74;45.76;100760.81;5099935;28;787;-37
2021/08/24 08:57:29;;;;;;;;;;;;;;;25.29;44.05;100758.50;5089549;28;973;-36
2021/08/24 09:00:03;;;;;;;;;;;;;;;25.49;43.64;100754.59;5079334;28;1910;-36
2021/08/24 09:02:32;;;;;;;;;;;;;;;25.12;44.50;100751.44;5077443;28;828;-37
2021/08/24 09:04:57;;;;;;;;;;;;;;;26.03;41.32;100756.63;5078598;28;847;-39
2021/08/24 09:07:40;;;;;;;;;;;;;;;26.25;40.59;100754.16;5078284;28;863;-37
2021/08/24 09:10:06;;;;;;;;;;;;;;;26.45;39.01;100753.75;5078920;28;766;-38
2021/08/24 09:12:31;;;;;;;;;;;;;;;26.35;39.10;100756.66;5090994;28;966;-38
2021/08/24 09:14:57;;;;;;;;;;;;;;;26.01;39.97;100760.50;5095718;28;1098;-38
2021/08/24 09:17:25;;;;;;;;;;;;;;;24.64;42.34;100747.53;5098514;28;756;-36
2021/08/24 09:19:58;;;;;;;;;;;;;;;24.38;41.28;100740.44;5099829;28;1964;-35
2021/08/24 09:22:23;;;;;;;;;;;;;;;25.09;37.83;100747.22;5087436;28;1126;-37
2021/08/24 09:24:48;;;;;;;;;;;;;;;25.80;35.97;100743.94;5078958;28;779;-37
2021/08/24 09:27:16;;;;;;;;;;;;;;;23.78;41.51;100745.75;5079126;28;1014;-37
2021/08/24 09:29:44;;;;;;;;;;;;;;;23.39;42.65;100733.56;5079184;28;800;-35
2021/08/24 09:32:13;;;;;;;;;;;;;;;25.28;37.02;100735.28;5078976;28;799;-38
2021/08/24 09:34:40;;;;;;;;;;;;;;;24.26;40.57;100731.84;5078244;28;795;-41
2021/08/24 09:37:05;;;;;;;;;;;;;;;23.54;42.03;100733.03;5077624;28;1403;-34
2021/08/24 09:39:50;;;;;;;;;;;;;;;24.60;39.45;100735.44;5079014;28;1906;-42
2021/08/24 09:42:16;;;;;;;;;;;;;;;25.35;38.52;100738.13;5088249;28;970;-36
2021/08/24 09:44:41;;;;;;;;;;;;;;;23.89;41.64;100741.09;5097785;28;755;-36
2021/08/24 09:47:16;;;;;;;;;;;;;;;23.84;42.62;100738.88;5099238;28;743;-37
2021/08/24 09:49:41;;;;;;;;;;;;;;;25.23;37.08;100731.41;5088513;28;1606;-35
2021/08/24 09:52:10;;;;;;;;;;;;;;;24.15;41.31;100732.13;5078671;28;731;-35
2021/08/24 09:54:42;;;;;;;;;;;;;;;23.89;41.30;100727.66;5078769;28;855;-38
2021/08/24 09:57:10;;;;;;;;;;;;;;;25.03;38.03;100719.16;5087088;28;958;-36
2021/08/24 09:59:37;;;;;;;;;;;;;;;24.52;40.44;100724.66;5098195;28;1910;-40
2021/08/24 10:02:03;;;;;;;;;;;;;;;23.96;41.04;100723.31;5096860;28;816;-36
2021/08/24 10:04:28;;;;;;;;;;;;;;;24.76;38.76;100723.00;5098670;28;731;-31
2021/08/24 10:06:53;;;;;;;;;;;;;;;25.28;37.63;100713.75;5097187;28;759;-36
2021/08/24 10:09:26;;;;;;;;;;;;;;;24.00;41.08;100718.47;5098943;28;796;-34
2021/08/24 10:11:52;;;;;;;;;;;;;;;24.80;38.47;100710.91;5092573;28;1021;-35
2021/08/24 10:14:21;;;;;;;;;;;;;;;25.55;36.53;100710.81;5077990;28;784;-36
2021/08/24 10:16:47;;;;;;;;;;;;;;;24.36;40.57;100717.44;5078234;28;807;-43
2021/08/24 10:19:24;;;;;;;;;;;;;;;24.18;41.47;100718.38;5078304;28;1902;-36
2021/08/24 10:21:52;;;;;;;;;;;;;;;25.52;37.14;100712.00;5084181;28;1136;-38
2021/08/24 10:24:27;;;;;;;;;;;;;;;24.50;40.49;100715.91;5084569;28;883;-39
2021/08/24 10:26:54;;;;;;;;;;;;;;;24.34;41.32;100717.56;5077748;28;1084;-35
2021/08/24 10:29:20;;;;;;;;;;;;;;;25.58;37.25;100720.38;5078043;28;856;-41
2021/08/24 10:31:48;;;;;;;;;;;;;;;24.64;40.48;100722.50;5076639;28;1393;-37
2021/08/24 10:34:31;;;;;;;;;;;;;;;24.71;39.78;100723.50;5077779;28;829;-36
2021/08/24 10:37:26;;;;;;;;;;;;;;;25.26;38.14;100721.13;5076594;28;748;-35
2021/08/24 10:39:54;;;;;;;;;;;;;;;24.96;39.22;100723.53;5060350;28;1961;-42
2021/08/24 10:42:30;;;;;;;;;;;;;;;24.24;40.46;100716.88;5086278;28;924;-41
2021/08/24 10:44:56;;;;;;;;;;;;;;;25.25;38.02;100707.84;5097752;28;850;-37
2021/08/24 10:47:23;;;;;;;;;;;;;;;25.42;38.13;100706.78;5098023;28;819;-37
2021/08/24 10:49:48;;;;;;;;;;;;;;;24.75;39.21;100719.47;5087432;28;1550;-38
2021/08/24 10:52:20;;;;;;;;;;;;;;;25.26;38.21;100705.00;5077807;28;808;-42
2021/08/24 10:55:04;;;;;;;;;;;;;;;25.98;36.62;100693.47;5075919;28;890;-39
2021/08/24 10:57:35;;;;;;;;;;;;;;;25.13;38.31;100694.75;5084925;28;1141;-37
2021/08/24 11:00:35;;;;;;;;;;;;;;;25.47;37.60;100697.38;5091280;28;1921;-36
2021/08/24 11:03:03;;;;;;;;;;;;;;;25.68;37.39;100708.44;5033768;28;1248;-38
2021/08/24 11:05:40;;;;;;;;;;;;;;;25.14;38.16;100701.81;5077280;28;844;-38
2021/08/24 11:08:17;;;;;;;;;;;;;;;25.73;36.75;100705.22;5076838;28;900;-38
2021/08/24 11:11:01;;;;;;;;;;;;;;;25.19;38.74;100707.53;5077383;28;830;-40
2021/08/24 11:13:36;;;;;;;;;;;;;;;24.48;40.18;100702.66;5096193;28;951;-39
2021/08/24 11:16:03;;;;;;;;;;;;;;;25.32;37.86;100692.72;5096887;28;816;-41
2021/08/24 11:18:45;;;;;;;;;;;;;;;25.47;38.29;100691.97;5097604;28;776;-42
2021/08/24 11:21:31;;;;;;;;;;;;;;;24.18;40.85;100697.72;5095266;28;1974;-35
2021/08/24 11:23:59;;;;;;;;;;;;;;;25.24;38.04;100690.03;5075658;28;842;-37
2021/08/24 11:26:33;;;;;;;;;;;;;;;24.75;39.91;100684.50;5079237;28;1025;-42
2021/08/24 11:29:07;;;;;;;;;;;;;;;23.69;42.17;100687.63;5096239;28;852;-41
2021/08/24 11:31:32;;;;;;;;;;;;;;;25.16;38.33;100677.41;5096682;28;875;-38
2021/08/24 11:34:01;;;;;;;;;;;;;;;24.58;40.03;100695.25;5097135;28;767;-37
2021/08/24 11:36:26;;;;;;;;;;;;;;;24.14;41.91;100688.25;5094736;28;871;-37
2021/08/24 11:38:59;;;;;;;;;;;;;;;25.27;37.69;100687.00;5097311;28;809;-40
2021/08/24 11:41:25;;;;;;;;;;;;;;;24.32;40.63;100693.53;5093608;28;961;-38
2021/08/24 11:43:53;;;;;;;;;;;;;;;25.02;39.51;100677.13;5075650;28;746;-38
2021/08/24 11:46:21;;;;;;;;;;;;;;;25.40;38.56;100675.69;5076632;28;811;-38
2021/08/24 11:48:46;;;;;;;;;;;;;;;24.18;41.01;100681.59;5078618;28;1538;-42
2021/08/24 11:51:14;;;;;;;;;;;;;;;25.29;38.31;100675.03;5096577;28;840;-41
2021/08/24 11:53:43;;;;;;;;;;;;;;;24.83;39.74;100679.13;5097339;28;807;-35
2021/08/24 11:56:08;;;;;;;;;;;;;;;23.71;42.51;100667.66;5094659;28;1016;-36
2021/08/24 11:58:35;;;;;;;;;;;;;;;25.29;38.00;100668.81;5074690;28;779;-42
2021/08/24 12:01:04;;;;;;;;;;;;;;;24.55;40.04;100665.16;5076361;28;1913;-40
2021/08/24 12:03:30;;;;;;;;;;;;;;;24.66;40.50;100659.44;5076648;28;847;-36
2021/08/24 12:05:58;;;;;;;;;;;;;;;25.57;39.49;100660.31;5076081;28;871;-41
2021/08/24 12:08:25;;;;;;;;;;;;;;;24.39;43.33;100663.31;5076712;28;808;-40
2021/08/24 12:10:51;;;;;;;;;;;;;;;23.88;44.82;100661.50;5075415;28;835;-42
2021/08/24 12:13:26;;;;;;;;;;;;;;;25.13;39.86;100653.53;5093689;28;907;-40
2021/08/24 12:15:54;;;;;;;;;;;;;;;24.28;42.27;100657.25;5094519;28;813;-38
2021/08/24 12:18:20;;;;;;;;;;;;;;;23.84;44.54;100656.44;5095063;28;1147;-41
2021/08/24 12:20:46;;;;;;;;;;;;;;;25.26;39.24;100653.00;5096476;28;1988;-38
2021/08/24 12:23:13;;;;;;;;;;;;;;;24.21;41.68;100661.59;5078153;28;1248;-36
2021/08/24 12:25:39;;;;;;;;;;;;;;;24.30;42.58;100655.25;5075966;28;775;-37
2021/08/24 12:28:04;;;;;;;;;;;;;;;25.37;37.78;100649.94;5090817;28;971;-40
2021/08/24 12:30:31;;;;;;;;;;;;;;;24.07;41.40;100653.13;5096677;28;753;-37
2021/08/24 12:32:56;;;;;;;;;;;;;;;24.95;38.83;100649.22;5096275;28;796;-38
2021/08/24 12:35:35;;;;;;;;;;;;;;;25.11;39.38;100653.72;5096174;28;792;-38
2021/08/24 12:38:01;;;;;;;;;;;;;;;24.84;40.46;100650.34;5094384;28;859;-38
2021/08/24 12:40:26;;;;;;;;;;;;;;;25.70;37.31;100650.84;5096668;28;1984;-40
2021/08/24 12:43:00;;;;;;;;;;;;;;;25.62;39.33;100655.25;5081578;28;994;-42
2021/08/24 12:45:26;;;;;;;;;;;;;;;25.27;40.09;100650.16;5075958;28;770;-41
2021/08/24 12:48:11;;;;;;;;;;;;;;;25.24;40.07;100655.84;5075803;28;1166;-35
2021/08/24 12:50:36;;;;;;;;;;;;;;;25.31;40.08;100651.47;5093019;28;1684;-41
2021/08/24 12:53:34;;;;;;;;;;;;;;;25.57;37.59;100649.53;5096614;28;760;-35
2021/08/24 12:56:00;;;;;;;;;;;;;;;24.81;41.50;100648.00;5051278;28;1357;-42